CST,Max TemperatureF,Mean TemperatureF,Min TemperatureF,Max Dew PointF,MeanDew PointF,Min DewpointF,Max Humidity, Mean Humidity, Min Humidity, Max Sea Level PressureIn, Mean Sea Level PressureIn, Min Sea Level PressureIn, Max VisibilityMiles, Mean VisibilityMiles, Min VisibilityMiles, Max Wind SpeedMPH, Mean Wind SpeedMPH, Max Gust SpeedMPH,PrecipitationIn, CloudCover, Events, WindDirDegrees
2012-11-1,82,63,44,58,49,43,100,85,33,30.09,30.02,29.97,10,4,0,4,0,,0.00,0,Fog,240
2012-11-2,86,70,53,66,59,51,100,83,38,30.07,30.01,29.97,10,6,0,9,2,,0.00,2,Fog,254
2012-11-3,86,70,55,66,59,55,100,85,36,30.14,30.07,30.01,10,4,0,8,1,,0.02,1,Fog,230
2012-11-4,80,68,57,63,60,54,94,81,48,30.14,30.09,30.03,10,10,7,8,1,,0.00,4,,68
2012-11-5,75,65,55,63,57,52,100,82,48,30.09,30.01,29.93,10,8,1,10,2,,0.00,5,,340
2012-11-6,63,54,45,56,50,43,94,80,54,30.10,30.06,29.98,10,8,1,9,2,17,0.00,5,,354
2012-11-7,72,56,41,50,39,29,93,67,20,30.17,30.10,30.05,10,9,2,10,2,21,0.00,0,,312
2012-11-8,70,53,36,46,39,34,93,71,31,30.28,30.20,30.16,10,10,10,8,1,,0.00,0,,155
2012-11-9,77,57,37,52,44,36,93,72,29,30.24,30.18,30.12,10,9,2,10,2,,0.00,0,,156
2012-11-10,80,63,46,58,51,45,100,81,43,30.20,30.14,30.06,10,5,1,12,2,20,0.00,1,,155
2012-11-11,75,69,63,67,63,57,94,83,60,30.09,30.05,30.00,10,7,2,12,6,24,0.29,7,Rain,174
2012-11-12,64,52,39,63,47,30,94,76,40,30.46,30.30,30.11,10,10,2,13,7,22,0.13,5,Rain,351
2012-11-13,60,46,33,37,31,26,92,59,28,30.51,30.42,30.35,10,10,10,12,2,18,0.00,0,,20
2012-11-14,63,48,33,36,32,28,92,64,27,30.40,30.34,30.29,10,10,5,7,2,,0.00,0,,23
2012-11-15,63,46,28,40,34,27,92,69,33,30.35,30.30,30.24,10,9,6,10,2,,0.00,0,,37
2012-11-16,66,52,37,42,38,35,93,70,32,30.37,30.32,30.27,10,10,9,8,2,,0.00,0,,56
2012-11-17,70,51,32,38,34,29,93,71,22,30.40,30.35,30.30,10,8,1,7,1,,0.00,0,,60
2012-11-18,70,50,30,41,35,30,96,72,25,30.35,30.31,30.26,10,9,2,6,1,,0.00,0,,50
2012-11-19,72,54,35,47,41,33,93,71,31,30.31,30.25,30.18,10,9,6,5,0,,0.00,1,,195
2012-11-20,75,59,43,52,46,41,93,72,32,30.24,30.18,30.13,10,9,4,5,0,,0.00,1,,280
2012-11-21,77,60,43,52,44,38,93,71,24,30.25,30.20,30.17,10,8,2,7,3,,0.00,0,,291
2012-11-22,75,56,36,49,42,34,93,78,32,30.25,30.19,30.14,10,7,1,9,1,,0.00,0,,183
2012-11-23,72,58,44,58,49,36,93,79,54,30.31,30.25,30.19,10,8,2,7,2,,0.00,5,,333
2012-11-24,59,44,30,35,30,25,89,60,28,30.40,30.29,30.20,10,10,10,7,4,,0.00,0,,321
2012-11-25,68,48,27,47,34,24,89,63,25,30.19,30.12,30.04,10,10,10,7,2,,0.00,0,,171
2012-11-26,77,62,48,66,60,46,90,83,69,30.07,30.03,29.97,10,10,2,8,3,16,0.09,6,Rain,181
2012-11-27,68,52,35,65,45,34,100,87,62,30.36,30.26,30.03,10,6,0,13,4,21,0.08,4,Fog-Rain-Thunderstorm,354
2012-11-28,62,46,30,40,32,25,96,79,24,30.49,30.40,30.35,10,6,0,10,1,,0.00,0,Fog,59
2012-11-29,66,47,28,38,32,25,92,68,21,30.38,30.29,30.23,10,9,6,7,1,,0.00,0,,145
2012-11-30,73,53,33,54,45,32,100,84,48,30.28,30.22,30.16,10,6,0,7,1,,0.00,3,Fog,145